Time;durP1;ratioP1;P1;durP2;ratioP2;P2;SDS_P1;SDS_P2;PMS_P1;PMS_P2;Temp;Humidity;BMP_temperature;BMP_pressure;BME280_temperature;BME280_humidity;BME280_pressure;Samples;Min_cycle;Max_cycle;Signal;HPM_P1;HPM_P2
2023/12/18 00:02:10;;;;;;;29.33;13.60;;;8.00;99.90;;;;;;4861012;29;20064;-86
2023/12/18 00:04:54;;;;;;;35.43;15.53;;;6.90;99.90;;;;;;4861796;29;20051;-85
2023/12/18 00:07:19;;;;;;;34.08;14.43;;;8.40;99.90;;;;;;4860907;29;20053;-86
2023/12/18 00:09:45;;;;;;;33.17;14.87;;;7.30;99.90;;;;;;4877677;29;20128;-85
2023/12/18 00:12:11;;;;;;;34.67;14.33;;;7.90;99.90;;;;;;4861360;29;20433;-85
2023/12/18 00:14:37;;;;;;;65.87;31.00;;;6.90;99.90;;;;;;4860662;29;20094;-85
2023/12/18 00:17:09;;;;;;;34.50;15.03;;;8.20;99.90;;;;;;4861862;29;20060;-85
2023/12/18 00:19:47;;;;;;;41.70;18.93;;;8.60;99.90;;;;;;4862252;29;20513;-86
2023/12/18 00:22:24;;;;;;;39.47;19.63;;;6.70;99.90;;;;;;4879930;29;20136;-85
2023/12/18 00:24:50;;;;;;;50.03;27.40;;;6.70;99.90;;;;;;4865290;29;20494;-85
2023/12/18 00:27:22;;;;;;;34.63;16.90;;;6.70;99.90;;;;;;4864056;29;20081;-85
2023/12/18 00:29:57;;;;;;;39.80;18.00;;;6.60;99.90;;;;;;4864530;29;20439;-85
2023/12/18 00:32:23;;;;;;;29.80;15.53;;;7.80;99.90;;;;;;4865265;29;20461;-85
2023/12/18 00:34:48;;;;;;;32.80;14.30;;;6.60;99.90;;;;;;4881307;29;20506;-85
2023/12/18 00:37:17;;;;;;;26.67;14.13;;;6.40;99.90;;;;;;4886402;29;20123;-85
2023/12/18 00:39:43;;;;;;;29.20;14.00;;;6.90;99.90;;;;;;4883306;29;20059;-85
2023/12/18 00:42:09;;;;;;;31.37;14.73;;;;;;;;;;4885674;29;20065;-85
2023/12/18 00:44:35;;;;;;;35.03;15.07;;;7.00;99.90;;;;;;4882775;29;20062;-85
2023/12/18 00:47:09;;;;;;;34.93;13.93;;;7.40;99.90;;;;;;4882806;29;20048;-86
2023/12/18 00:49:48;;;;;;;30.47;12.57;;;6.00;99.90;;;;;;4880308;29;20475;-86
2023/12/18 00:52:34;;;;;;;28.80;13.17;;;6.10;99.90;;;;;;4880410;29;20060;-85
2023/12/18 00:54:59;;;;;;;30.43;13.80;;;6.70;99.90;;;;;;4863640;29;20053;-86
2023/12/18 00:57:25;;;;;;;26.83;13.50;;;6.90;99.90;;;;;;4863850;29;20112;-85
2023/12/18 00:59:51;;;;;;;30.57;12.90;;;6.80;99.90;;;;;;4882831;23;20438;-86
2023/12/18 01:02:17;;;;;;;27.63;12.67;;;6.90;99.90;;;;;;4901336;29;20056;-86
2023/12/18 01:04:45;;;;;;;29.10;13.77;;;6.90;99.90;;;;;;4900927;29;20052;-86
2023/12/18 01:07:17;;;;;;;28.60;13.53;;;7.90;99.90;;;;;;4901120;29;20047;-86
2023/12/18 01:09:56;;;;;;;32.10;14.77;;;8.80;99.90;;;;;;4901490;29;20048;-85
2023/12/18 01:12:28;;;;;;;24.90;12.53;;;6.10;99.90;;;;;;4899649;29;20084;-86
2023/12/18 01:15:06;;;;;;;30.50;13.97;;;6.40;99.90;;;;;;4901551;29;20047;-86
2023/12/18 01:17:35;;;;;;;29.80;13.03;;;7.00;99.90;;;;;;4901518;29;20048;-85
2023/12/18 01:20:01;;;;;;;32.53;15.07;;;6.80;99.90;;;;;;4900447;29;20084;-85
2023/12/18 01:22:27;;;;;;;27.30;13.33;;;8.40;99.90;;;;;;4898624;29;20132;-85
2023/12/18 01:24:52;;;;;;;35.83;15.57;;;7.90;99.90;;;;;;4881561;29;20409;-85
2023/12/18 01:27:27;;;;;;;32.53;15.47;;;6.90;99.90;;;;;;4882759;29;20462;-86
2023/12/18 01:30:09;;;;;;;37.33;16.20;;;6.60;99.90;;;;;;4882883;29;20133;-86
2023/12/18 01:32:35;;;;;;;31.23;14.43;;;7.00;99.90;;;;;;4881936;29;20083;-86
2023/12/18 01:35:01;;;;;;;33.60;15.37;;;8.20;99.90;;;;;;4882303;29;20144;-86
2023/12/18 01:37:35;;;;;;;31.00;15.00;;;8.00;99.90;;;;;;4882737;29;20053;-85
2023/12/18 01:40:11;;;;;;;33.47;14.77;;;7.50;99.90;;;;;;4881123;29;20052;-86
2023/12/18 01:42:37;;;;;;;35.93;16.07;;;7.10;99.90;;;;;;4899814;29;20135;-85
2023/12/18 01:45:02;;;;;;;32.40;14.77;;;6.80;99.90;;;;;;4882154;29;20067;-85
2023/12/18 01:47:39;;;;;;;29.40;15.00;;;7.10;99.90;;;;;;4881208;29;20518;-86
2023/12/18 01:50:17;;;;;;;32.60;15.77;;;7.00;99.90;;;;;;4881373;29;20442;-85
2023/12/18 01:52:43;;;;;;;30.03;15.20;;;7.10;99.90;;;;;;4882014;29;20088;-86
2023/12/18 01:55:14;;;;;;;30.70;15.10;;;8.30;99.90;;;;;;4881155;29;20104;-85
2023/12/18 01:57:40;;;;;;;31.87;15.53;;;7.50;99.90;;;;;;4898801;29;20045;-85
2023/12/18 02:00:07;;;;;;;32.87;14.60;;;8.20;99.90;;;;;;4880075;29;20060;-85
2023/12/18 02:02:35;;;;;;;29.87;15.03;;;7.10;99.90;;;;;;4881827;29;20067;-86
2023/12/18 02:05:00;;;;;;;33.87;16.47;;;7.60;99.90;;;;;;4881600;29;20049;-85
2023/12/18 02:07:41;;;;;;;33.27;15.67;;;8.60;99.90;;;;;;4885371;29;20046;-85
2023/12/18 02:10:13;;;;;;;33.87;16.37;;;6.70;99.90;;;;;;4900516;29;20052;-85
2023/12/18 02:12:38;;;;;;;31.50;15.33;;;7.30;99.90;;;;;;4881674;29;20060;-85
2023/12/18 02:15:05;;;;;;;30.43;15.70;;;7.60;99.90;;;;;;4880708;29;20044;-85
2023/12/18 02:17:30;;;;;;;32.53;15.67;;;7.10;99.90;;;;;;4884209;29;20055;-85
2023/12/18 02:20:06;;;;;;;29.53;15.87;;;8.30;99.90;;;;;;4880772;29;20044;-85
2023/12/18 02:22:47;;;;;;;32.73;16.97;;;7.00;99.90;;;;;;4880856;29;20056;-84
2023/12/18 02:25:17;;;;;;;31.57;15.67;;;6.70;99.90;;;;;;4899947;29;20108;-85
2023/12/18 02:27:49;;;;;;;35.30;15.57;;;7.60;99.90;;;;;;4900143;29;20111;-85
2023/12/18 02:30:32;;;;;;;31.67;16.83;;;7.10;99.90;;;;;;4907629;29;20048;-86
2023/12/18 02:32:57;;;;;;;33.10;16.47;;;7.00;99.90;;;;;;4880967;29;20084;-87
2023/12/18 02:35:23;;;;;;;29.87;16.27;;;6.70;99.90;;;;;;4880712;29;20094;-85
2023/12/18 02:37:49;;;;;;;34.83;17.97;;;7.60;99.90;;;;;;4881007;29;20108;-85
2023/12/18 02:40:15;;;;;;;34.07;17.87;;;8.70;99.90;;;;;;4898147;29;20053;-85
2023/12/18 02:42:41;;;;;;;33.53;17.03;;;7.10;99.90;;;;;;4880534;29;20053;-86
2023/12/18 02:45:07;;;;;;;36.87;17.80;;;6.10;99.90;;;;;;4880413;29;20131;-85
2023/12/18 02:47:32;;;;;;;34.63;17.43;;;7.10;99.90;;;;;;4881620;29;20068;-85
2023/12/18 02:49:58;;;;;;;31.83;17.37;;;7.10;99.90;;;;;;4891529;29;20040;-86
2023/12/18 02:52:24;;;;;;;38.90;17.03;;;6.80;99.90;;;;;;4901364;29;20060;-85
2023/12/18 02:55:02;;;;;;;32.03;16.97;;;6.80;99.90;;;;;;4907871;29;20132;-86
2023/12/18 02:57:28;;;;;;;32.27;17.83;;;7.10;99.90;;;;;;4886229;29;20052;-85
2023/12/18 02:59:54;;;;;;;31.57;16.73;;;8.40;99.90;;;;;;4880545;29;20048;-87
2023/12/18 03:02:20;;;;;;;34.33;16.50;;;7.00;99.90;;;;;;4880979;29;20060;-85
2023/12/18 03:04:46;;;;;;;38.07;17.20;;;7.10;99.90;;;;;;4896821;29;20045;-85
2023/12/18 03:07:11;;;;;;;32.13;16.90;;;6.90;99.90;;;;;;4893194;29;20620;-86
2023/12/18 03:09:37;;;;;;;32.73;17.10;;;7.00;99.90;;;;;;4881253;29;20087;-86
2023/12/18 03:12:04;;;;;;;32.57;16.00;;;8.50;99.90;;;;;;4880631;29;20540;-86
2023/12/18 03:14:29;;;;;;;34.53;17.23;;;7.20;99.90;;;;;;4881293;29;20132;-86
2023/12/18 03:17:10;;;;;;;32.63;16.83;;;6.90;99.90;;;;;;4880471;29;20128;-86
2023/12/18 03:19:36;;;;;;;31.83;17.50;;;6.90;99.90;;;;;;4880498;29;20044;-85
2023/12/18 03:22:02;;;;;;;35.80;18.07;;;7.50;99.90;;;;;;4897080;29;20041;-85
2023/12/18 03:24:40;;;;;;;28.70;16.00;;;7.20;99.90;;;;;;4880174;29;20489;-86
2023/12/18 03:27:14;;;;;;;35.70;16.47;;;7.80;99.90;;;;;;4880031;29;20509;-85
2023/12/18 03:29:42;;;;;;;37.27;17.33;;;7.30;99.90;;;;;;4880781;29;20055;-85
2023/12/18 03:32:08;;;;;;;31.50;16.10;;;8.00;99.90;;;;;;4879737;29;20131;-86
2023/12/18 03:34:34;;;;;;;30.77;17.37;;;8.80;99.90;;;;;;4880777;29;20083;-86
2023/12/18 03:37:12;;;;;;;33.33;17.73;;;7.50;99.90;;;;;;4880790;29;20100;-85
2023/12/18 03:39:37;;;;;;;31.40;17.43;;;7.00;99.90;;;;;;4880185;29;20055;-86
2023/12/18 03:42:15;;;;;;;37.57;19.70;;;8.00;99.90;;;;;;4897468;29;20123;-85
2023/12/18 03:44:46;;;;;;;37.73;16.73;;;6.90;99.90;;;;;;4880925;29;20497;-85
2023/12/18 03:47:16;;;;;;;32.33;17.97;;;8.60;99.90;;;;;;4896473;29;20060;-85
2023/12/18 03:49:42;;;;;;;31.80;16.83;;;6.30;99.90;;;;;;4897739;29;20049;-86
2023/12/18 03:52:08;;;;;;;37.40;17.63;;;8.30;99.90;;;;;;4880272;29;20482;-86
2023/12/18 03:54:46;;;;;;;33.10;18.93;;;8.80;99.90;;;;;;4880440;29;20049;-85
2023/12/18 03:57:11;;;;;;;32.83;18.73;;;7.00;99.90;;;;;;4883888;29;20060;-85
2023/12/18 03:59:43;;;;;;;35.70;16.63;;;8.30;99.90;;;;;;4883389;29;20066;-86
2023/12/18 04:02:09;;;;;;;31.43;16.43;;;6.50;99.90;;;;;;4883682;29;20139;-86
2023/12/18 04:04:40;;;;;;;31.90;16.97;;;8.20;99.90;;;;;;4884099;29;20147;-86
2023/12/18 04:07:19;;;;;;;33.07;16.90;;;6.90;99.90;;;;;;4901053;29;20052;-85
2023/12/18 04:09:44;;;;;;;37.00;16.97;;;8.20;99.90;;;;;;4902586;29;20370;-85
2023/12/18 04:12:10;;;;;;;31.20;16.17;;;8.30;99.90;;;;;;4902528;29;20139;-85
2023/12/18 04:14:35;;;;;;;34.07;16.73;;;8.10;99.90;;;;;;4902361;29;20055;-85
2023/12/18 04:17:01;;;;;;;32.07;16.93;;;6.30;99.90;;;;;;4902809;29;20083;-85
2023/12/18 04:19:33;;;;;;;32.97;17.47;;;7.10;99.90;;;;;;4902376;29;20107;-86
2023/12/18 04:22:14;;;;;;;32.60;16.50;;;7.70;99.90;;;;;;4901557;29;20059;-85
2023/12/18 04:24:45;;;;;;;35.33;18.00;;;6.50;99.90;;;;;;4902681;29;20048;-85
2023/12/18 04:27:19;;;;;;;34.77;16.43;;;7.10;99.90;;;;;;4901769;29;20044;-86
2023/12/18 04:29:44;;;;;;;32.87;16.93;;;8.00;99.90;;;;;;4901166;29;20040;-85
2023/12/18 04:32:10;;;;;;;30.80;17.93;;;7.50;99.90;;;;;;4902096;29;20048;-85
2023/12/18 04:34:42;;;;;;;33.27;16.83;;;6.90;99.90;;;;;;4901621;29;20048;-85
2023/12/18 04:37:09;;;;;;;27.73;15.67;;;8.10;99.90;;;;;;4902336;29;20107;-86
2023/12/18 04:39:35;;;;;;;32.83;16.53;;;6.90;99.90;;;;;;4902367;29;20058;-86
2023/12/18 04:42:00;;;;;;;30.23;16.60;;;8.20;99.90;;;;;;4901250;29;20044;-85
2023/12/18 04:44:26;;;;;;;30.87;15.70;;;8.20;99.90;;;;;;4902259;29;20582;-86
2023/12/18 04:46:52;;;;;;;30.13;16.47;;;8.20;99.90;;;;;;4901731;29;20485;-86
2023/12/18 04:49:18;;;;;;;30.57;17.00;;;8.20;99.90;;;;;;4901493;29;20092;-86
2023/12/18 04:51:44;;;;;;;31.60;16.47;;;7.40;99.90;;;;;;4901857;29;20056;-86
2023/12/18 04:54:10;;;;;;;32.63;17.13;;;8.00;99.90;;;;;;4901479;29;20044;-86
2023/12/18 04:56:47;;;;;;;31.57;16.17;;;6.20;99.90;;;;;;4901319;29;20044;-87
2023/12/18 04:59:13;;;;;;;31.27;16.40;;;6.60;99.90;;;;;;4902820;29;20048;-86
2023/12/18 05:01:42;;;;;;;33.17;15.70;;;8.60;99.90;;;;;;4911841;29;20110;-85
2023/12/18 05:04:08;;;;;;;33.07;16.60;;;8.40;99.90;;;;;;4907698;29;20048;-85
2023/12/18 05:06:34;;;;;;;29.33;16.53;;;7.90;99.90;;;;;;4900146;29;20048;-85
2023/12/18 05:08:59;;;;;;;31.83;16.93;;;6.80;99.90;;;;;;4900936;29;20044;-85
2023/12/18 05:11:31;;;;;;;30.83;15.90;;;6.80;99.90;;;;;;4901021;29;20048;-86
2023/12/18 05:13:56;;;;;;;30.73;16.90;;;7.70;99.90;;;;;;4906227;29;20428;-85
2023/12/18 05:16:22;;;;;;;30.90;16.17;;;7.20;99.90;;;;;;4902901;29;20056;-85
2023/12/18 05:18:48;;;;;;;29.97;16.40;;;8.00;99.90;;;;;;4901088;29;20503;-85
2023/12/18 05:21:17;;;;;;;35.33;17.47;;;6.50;99.90;;;;;;4903640;29;20079;-86
2023/12/18 05:23:42;;;;;;;29.87;16.50;;;7.00;99.90;;;;;;4901059;29;20477;-86
2023/12/18 05:26:09;;;;;;;31.43;16.60;;;7.90;99.90;;;;;;4916989;29;20126;-85
2023/12/18 05:28:50;;;;;;;30.57;15.87;;;6.00;99.90;;;;;;4901284;29;20401;-85
2023/12/18 05:31:18;;;;;;;31.87;15.80;;;8.10;99.90;;;;;;4900316;29;20052;-86
2023/12/18 05:33:44;;;;;;;29.83;16.40;;;8.10;99.90;;;;;;4901323;29;20100;-86
2023/12/18 05:36:17;;;;;;;31.47;16.00;;;7.40;99.90;;;;;;4900743;29;20044;-86
2023/12/18 05:38:43;;;;;;;33.67;16.40;;;8.50;99.90;;;;;;4900293;29;20059;-86
2023/12/18 05:41:09;;;;;;;33.47;16.00;;;6.80;99.90;;;;;;4900998;29;20060;-85
2023/12/18 05:43:55;;;;;;;26.43;15.50;;;7.80;99.90;;;;;;4901139;29;20052;-85
2023/12/18 05:46:23;;;;;;;32.53;16.17;;;7.60;99.90;;;;;;4900186;29;20060;-86
2023/12/18 05:48:49;;;;;;;26.53;15.47;;;8.00;99.90;;;;;;4901517;29;20052;-86
2023/12/18 05:51:19;;;;;;;30.13;16.20;;;8.10;99.90;;;;;;4900929;29;20515;-86
2023/12/18 05:53:45;;;;;;;29.07;15.57;;;6.70;99.90;;;;;;4900648;29;20493;-86
2023/12/18 05:56:11;;;;;;;28.73;16.10;;;7.00;99.90;;;;;;4924724;29;20047;-86
2023/12/18 05:58:49;;;;;;;30.53;15.20;;;7.40;99.90;;;;;;4916693;29;20048;-85
2023/12/18 06:01:15;;;;;;;27.33;15.40;;;;;;;;;;4908288;29;20456;-86
2023/12/18 06:03:41;;;;;;;33.87;16.57;;;6.90;99.90;;;;;;4910098;29;20139;-86
2023/12/18 06:06:09;;;;;;;31.50;15.63;;;8.40;99.90;;;;;;4899704;29;20548;-86
2023/12/18 06:08:50;;;;;;;29.47;15.87;;;8.00;99.90;;;;;;4900801;29;20103;-86
2023/12/18 06:11:23;;;;;;;32.77;16.67;;;8.70;99.90;;;;;;4900093;29;20047;-86
2023/12/18 06:13:49;;;;;;;29.20;16.13;;;7.90;99.90;;;;;;4899952;29;20051;-86
2023/12/18 06:16:21;;;;;;;31.23;15.30;;;8.60;99.90;;;;;;4900096;29;20047;-87
2023/12/18 06:18:48;;;;;;;30.70;15.33;;;6.30;99.90;;;;;;4900377;29;20519;-86
2023/12/18 06:21:20;;;;;;;26.70;15.07;;;7.00;99.90;;;;;;4899386;29;20175;-86
2023/12/18 06:23:55;;;;;;;28.07;16.33;;;7.40;99.90;;;;;;4900109;29;20154;-86
2023/12/18 06:26:27;;;;;;;26.40;14.07;;;6.80;99.90;;;;;;4900289;29;20056;-87
2023/12/18 06:28:53;;;;;;;29.13;15.63;;;6.50;99.90;;;;;;4899014;29;20040;-87
2023/12/18 06:31:18;;;;;;;28.40;14.70;;;8.20;99.90;;;;;;4900320;29;20063;-86
2023/12/18 06:33:44;;;;;;;29.53;15.17;;;7.00;99.90;;;;;;4900692;29;20131;-86
2023/12/18 06:36:15;;;;;;;26.40;13.33;;;7.00;99.90;;;;;;4899572;29;20488;-87
2023/12/18 06:38:53;;;;;;;30.83;14.07;;;7.10;99.90;;;;;;4900468;29;20293;-86
2023/12/18 06:41:18;;;;;;;28.33;15.07;;;7.40;99.90;;;;;;4899886;29;20135;-86
2023/12/18 06:43:44;;;;;;;27.77;13.37;;;6.90;99.90;;;;;;4900055;29;20184;-86
2023/12/18 06:46:11;;;;;;;28.40;13.63;;;6.90;99.90;;;;;;4899397;29;20045;-86
2023/12/18 06:48:39;;;;;;;28.73;13.63;;;6.70;99.90;;;;;;4919015;29;20052;-86
2023/12/18 06:51:04;;;;;;;27.17;14.57;;;6.80;99.90;;;;;;4899492;29;20540;-86
2023/12/18 06:53:30;;;;;;;33.87;14.77;;;7.20;99.90;;;;;;4899696;29;20043;-86
2023/12/18 06:55:56;;;;;;;30.23;14.50;;;8.30;99.90;;;;;;4901310;29;20050;-86
2023/12/18 06:58:22;;;;;;;28.17;13.97;;;;;;;;;;4899705;29;20130;-87
2023/12/18 07:01:15;;;;;;;29.77;14.60;;;7.20;99.90;;;;;;4899516;29;20060;-86
2023/12/18 07:03:41;;;;;;;28.47;13.93;;;6.40;99.90;;;;;;4898799;29;20062;-86
2023/12/18 07:06:06;;;;;;;28.37;14.63;;;7.10;99.90;;;;;;4899152;29;20075;-86
2023/12/18 07:08:32;;;;;;;26.00;13.10;;;8.40;99.90;;;;;;4916699;29;20040;-86
2023/12/18 07:10:58;;;;;;;30.20;14.50;;;7.00;99.90;;;;;;4898818;29;20350;-86
2023/12/18 07:13:39;;;;;;;28.03;14.17;;;6.30;99.90;;;;;;4916235;29;20075;-86
2023/12/18 07:16:21;;;;;;;31.23;14.93;;;6.70;99.90;;;;;;4899093;29;20048;-86
2023/12/18 07:18:50;;;;;;;28.63;14.83;;;8.00;99.90;;;;;;4899703;29;20131;-86
2023/12/18 07:21:16;;;;;;;24.03;11.77;;;6.90;99.90;;;;;;4899101;29;20048;-86
2023/12/18 07:23:57;;;;;;;26.07;12.20;;;7.10;99.90;;;;;;4899428;29;20115;-86
2023/12/18 07:26:23;;;;;;;25.60;11.70;;;6.50;99.90;;;;;;4899335;29;20094;-87
2023/12/18 07:28:49;;;;;;;23.73;11.50;;;7.60;99.90;;;;;;4909621;29;20509;-86
2023/12/18 07:31:14;;;;;;;25.27;12.30;;;7.10;99.90;;;;;;4901919;29;20055;-86
2023/12/18 07:33:40;;;;;;;25.43;12.50;;;8.60;99.90;;;;;;4903349;29;20075;-86
2023/12/18 07:36:07;;;;;;;25.90;11.73;;;6.30;99.90;;;;;;4902805;29;20044;-87
2023/12/18 07:38:42;;;;;;;30.93;13.40;;;7.00;99.90;;;;;;4902344;29;20446;-83
2023/12/18 07:41:11;;;;;;;24.77;12.90;;;6.80;99.90;;;;;;4902601;29;20048;-84
2023/12/18 07:43:36;;;;;;;27.77;11.60;;;8.30;99.90;;;;;;4902791;29;20520;-82
2023/12/18 07:46:18;;;;;;;27.50;12.17;;;7.00;99.90;;;;;;4901631;29;20136;-82
2023/12/18 07:49:04;;;;;;;28.27;12.57;;;6.30;99.90;;;;;;4902943;29;20064;-82
2023/12/18 07:51:42;;;;;;;29.60;12.27;;;7.10;99.90;;;;;;4902174;29;20176;-82
2023/12/18 07:54:08;;;;;;;27.60;12.40;;;8.50;99.90;;;;;;4902469;29;20401;-82
2023/12/18 07:56:34;;;;;;;27.07;12.80;;;6.80;99.90;;;;;;4902751;29;20084;-81
2023/12/18 07:59:00;;;;;;;28.00;12.17;;;7.00;99.90;;;;;;4907771;23;20063;-82
2023/12/18 08:01:25;;;;;;;29.10;12.50;;;7.00;99.90;;;;;;4901814;29;20088;-82
2023/12/18 08:03:51;;;;;;;32.17;13.83;;;8.40;99.90;;;;;;4899961;29;20131;-82
2023/12/18 08:06:17;;;;;;;32.73;13.80;;;8.00;99.90;;;;;;4901113;29;20048;-82
2023/12/18 08:08:43;;;;;;;27.27;12.33;;;7.10;99.90;;;;;;4902299;29;20048;-81
2023/12/18 08:11:12;;;;;;;29.33;12.80;;;7.10;99.90;;;;;;4902066;29;20044;-83
2023/12/18 08:13:41;;;;;;;27.83;13.73;;;8.30;99.90;;;;;;4900588;29;20471;-82
2023/12/18 08:16:07;;;;;;;32.80;15.43;;;7.10;99.90;;;;;;4901534;29;20150;-82
2023/12/18 08:18:33;;;;;;;30.03;14.10;;;8.30;99.90;;;;;;4902146;29;20059;-82
2023/12/18 08:20:59;;;;;;;27.10;12.13;;;7.10;99.90;;;;;;4901529;29;20103;-82
2023/12/18 08:23:44;;;;;;;26.53;12.43;;;7.10;99.90;;;;;;4901669;29;20040;-81
2023/12/18 08:26:18;;;;;;;24.27;12.10;;;7.50;99.90;;;;;;4915752;29;20454;-82
2023/12/18 08:28:45;;;;;;;30.90;13.93;;;9.00;99.90;;;;;;4901319;29;20048;-81
2023/12/18 08:31:11;;;;;;;30.10;12.63;;;7.00;99.90;;;;;;4901839;29;20067;-81
2023/12/18 08:33:39;;;;;;;28.53;12.33;;;7.10;99.90;;;;;;4902195;29;20111;-81
2023/12/18 08:36:05;;;;;;;27.20;12.73;;;7.10;99.90;;;;;;4901018;29;20051;-81
2023/12/18 08:38:31;;;;;;;29.17;12.43;;;7.10;99.90;;;;;;4901663;29;20044;-82
2023/12/18 08:40:56;;;;;;;28.93;12.83;;;7.40;99.90;;;;;;5050696;23;20058;-82
2023/12/18 08:43:22;;;;;;;30.77;13.67;;;7.10;99.90;;;;;;4845810;29;20554;-81
2023/12/18 08:45:48;;;;;;;28.47;12.87;;;7.30;99.90;;;;;;4846089;29;20072;-82
2023/12/18 08:48:14;;;;;;;27.77;12.23;;;7.10;99.90;;;;;;4844035;29;20500;-82
2023/12/18 08:50:39;;;;;;;27.27;12.30;;;7.10;99.90;;;;;;4847854;29;20078;-82
2023/12/18 08:53:05;;;;;;;31.27;14.03;;;8.00;99.90;;;;;;4859716;29;20045;-82
2023/12/18 08:55:32;;;;;;;28.00;14.13;;;7.10;99.90;;;;;;4877775;29;20021;-82
2023/12/18 08:57:57;;;;;;;30.83;13.40;;;8.20;99.90;;;;;;4861711;29;20048;-82
2023/12/18 09:00:25;;;;;;;26.33;13.47;;;7.10;99.90;;;;;;4854210;29;20044;-82
2023/12/18 09:02:50;;;;;;;32.07;15.87;;;7.10;99.90;;;;;;4869338;29;20144;-83
2023/12/18 09:05:16;;;;;;;24.10;11.70;;;7.10;99.90;;;;;;4847003;29;20534;-81
2023/12/18 09:07:42;;;;;;;26.50;12.87;;;7.20;99.90;;;;;;4845402;29;20491;-82
2023/12/18 09:10:11;;;;;;;28.70;12.57;;;7.20;99.90;;;;;;4875008;29;20486;-82
2023/12/18 09:12:37;;;;;;;28.83;13.50;;;7.20;99.90;;;;;;4844411;29;20056;-82
2023/12/18 09:15:03;;;;;;;31.23;13.57;;;7.20;99.90;;;;;;4844491;29;20042;-83
2023/12/18 09:17:28;;;;;;;30.90;13.90;;;7.20;99.90;;;;;;4844990;29;20042;-82
2023/12/18 09:19:55;;;;;;;32.37;14.03;;;7.20;99.90;;;;;;4844928;29;20251;-82
2023/12/18 09:22:20;;;;;;;36.67;18.40;;;7.20;99.90;;;;;;4845240;29;20049;-81
2023/12/18 09:24:46;;;;;;;36.10;17.13;;;7.20;99.90;;;;;;4844633;29;20543;-82
2023/12/18 09:27:13;;;;;;;35.20;14.40;;;7.20;99.90;;;;;;4844489;29;20096;-82
2023/12/18 09:29:38;;;;;;;28.80;13.50;;;7.70;99.90;;;;;;4844873;29;20038;-82
2023/12/18 09:32:07;;;;;;;29.33;14.13;;;7.10;99.90;;;;;;4844199;29;20102;-83
2023/12/18 09:34:33;;;;;;;29.93;14.30;;;7.00;99.90;;;;;;4845078;29;20418;-82
2023/12/18 09:37:07;;;;;;;31.90;14.10;;;7.10;99.90;;;;;;4843810;29;20050;-83
2023/12/18 09:39:33;;;;;;;38.07;16.17;;;7.90;99.90;;;;;;4845044;29;20479;-84
2023/12/18 09:42:14;;;;;;;34.73;16.87;;;7.30;99.90;;;;;;4844317;29;20078;-82
2023/12/18 09:44:40;;;;;;;35.37;16.93;;;6.60;99.90;;;;;;4860111;29;20050;-82
2023/12/18 09:47:07;;;;;;;33.47;16.40;;;7.20;99.90;;;;;;4861270;29;20431;-82
2023/12/18 09:49:36;;;;;;;31.67;13.80;;;7.30;99.90;;;;;;4842554;29;20049;-82
2023/12/18 09:52:06;;;;;;;29.93;13.53;;;8.10;99.90;;;;;;4844436;29;20100;-82
2023/12/18 09:54:33;;;;;;;29.70;14.87;;;7.30;99.90;;;;;;4847576;29;20041;-81
2023/12/18 10:00:39;;;;;;;33.07;15.27;;;7.00;99.90;;;;;;4911169;23;20063;-82
2023/12/18 10:03:20;;;;;;;33.13;13.13;;;8.30;99.90;;;;;;4900413;29;20048;-82
2023/12/18 10:05:46;;;;;;;36.10;15.53;;;6.80;99.90;;;;;;4899540;29;20162;-82
2023/12/18 10:08:12;;;;;;;37.13;17.27;;;7.20;99.90;;;;;;4899631;29;20184;-82
2023/12/18 10:10:37;;;;;;;31.93;15.90;;;7.30;99.90;;;;;;4896228;29;20051;-82
2023/12/18 10:13:09;;;;;;;34.03;16.83;;;7.30;99.90;;;;;;4880562;29;20037;-82
2023/12/18 10:15:39;;;;;;;29.73;15.27;;;7.40;99.90;;;;;;4895053;29;20056;-82
2023/12/18 10:18:05;;;;;;;34.28;15.07;;;8.30;99.90;;;;;;4899565;29;20044;-82
2023/12/18 10:20:34;;;;;;;37.60;16.27;;;7.40;99.90;;;;;;4917462;23;20452;-82
2023/12/18 10:23:00;;;;;;;36.63;15.40;;;8.50;99.90;;;;;;4889063;23;20486;-82
2023/12/18 10:25:26;;;;;;;34.37;17.80;;;7.30;99.90;;;;;;4895509;29;20063;-82
2023/12/18 10:27:55;;;;;;;37.23;16.43;;;7.40;99.90;;;;;;4880434;29;20052;-82
2023/12/18 10:30:25;;;;;;;31.60;15.67;;;7.40;99.90;;;;;;4878004;29;20129;-82
2023/12/18 10:32:52;;;;;;;39.13;15.40;;;7.40;99.90;;;;;;4862476;29;20059;-83
2023/12/18 10:35:17;;;;;;;31.77;15.00;;;7.40;99.90;;;;;;4871722;29;20040;-82
2023/12/18 10:37:54;;;;;;;28.20;14.67;;;7.50;99.90;;;;;;4880996;29;20048;-82
2023/12/18 10:40:23;;;;;;;31.93;14.47;;;7.50;99.90;;;;;;4880756;29;20074;-82
2023/12/18 10:42:58;;;;;;;28.70;14.10;;;7.40;99.90;;;;;;4880885;29;20056;-82
2023/12/18 10:45:25;;;;;;;32.60;14.37;;;7.50;99.90;;;;;;4881133;29;20056;-82
2023/12/18 10:48:07;;;;;;;36.53;15.07;;;8.80;99.90;;;;;;4880098;29;20347;-82
2023/12/18 10:54:14;;;;;;;32.43;13.80;;;8.70;99.90;;;;;;4897474;29;20043;-82
2023/12/18 10:56:43;;;;;;;30.80;14.20;;;8.80;99.90;;;;;;4895674;29;20052;-82
2023/12/18 10:59:10;;;;;;;34.80;17.63;;;7.50;99.90;;;;;;4880762;29;20048;-82
2023/12/18 11:01:36;;;;;;;32.70;16.77;;;7.60;99.90;;;;;;4880190;29;20124;-82
2023/12/18 11:04:02;;;;;;;36.17;18.00;;;7.60;99.90;;;;;;4878190;29;20131;-82
2023/12/18 11:06:32;;;;;;;32.03;16.60;;;7.60;99.90;;;;;;4877803;29;20107;-81
2023/12/18 11:09:07;;;;;;;35.70;17.03;;;7.30;99.90;;;;;;4878539;29;20044;-82
2023/12/18 11:11:35;;;;;;;37.93;17.90;;;7.60;99.90;;;;;;4880569;29;20102;-82
2023/12/18 11:14:16;;;;;;;39.57;17.83;;;7.60;99.90;;;;;;4879264;29;20060;-82
2023/12/18 11:17:07;;;;;;;36.97;16.80;;;7.60;99.90;;;;;;4879831;29;20131;-82
2023/12/18 11:19:44;;;;;;;32.97;14.00;;;7.60;99.90;;;;;;4880180;29;20104;-81
2023/12/18 11:22:10;;;;;;;30.57;15.17;;;8.60;99.90;;;;;;4880101;29;20045;-82
2023/12/18 11:24:37;;;;;;;34.90;15.70;;;7.60;99.90;;;;;;4930232;23;20331;-82
2023/12/18 11:27:06;;;;;;;35.00;15.07;;;7.60;99.90;;;;;;4863048;29;20092;-81
2023/12/18 11:29:46;;;;;;;35.70;15.27;;;7.60;99.90;;;;;;4861559;29;20398;-82
2023/12/18 11:32:43;;;;;;;27.30;14.13;;;7.60;99.90;;;;;;4861930;29;20115;-82
2023/12/18 11:35:12;;;;;;;34.40;14.57;;;7.60;99.90;;;;;;4862215;29;20446;-82
2023/12/18 11:38:09;;;;;;;34.47;14.37;;;7.60;99.90;;;;;;4861407;29;20091;-85
2023/12/18 11:40:40;;;;;;;30.20;13.50;;;7.60;99.90;;;;;;4856428;29;20053;-83
2023/12/18 11:43:08;;;;;;;31.83;14.20;;;9.00;99.90;;;;;;4862789;29;20108;-85
2023/12/18 11:45:46;;;;;;;33.33;15.10;;;8.00;99.90;;;;;;4861118;29;20477;-82
2023/12/18 11:48:19;;;;;;;34.43;14.53;;;7.70;99.90;;;;;;4862189;29;20085;-82
2023/12/18 11:51:03;;;;;;;33.00;14.07;;;7.70;99.90;;;;;;4875726;29;20061;-82
2023/12/18 11:53:57;;;;;;;45.57;21.27;;;7.70;99.90;;;;;;4870372;29;20061;-84
2023/12/18 11:56:39;;;;;;;32.07;14.03;;;8.30;99.90;;;;;;4877748;29;20042;-83
2023/12/18 11:59:14;;;;;;;35.13;13.83;;;8.70;99.90;;;;;;4845835;29;20105;-83
2023/12/18 12:01:41;;;;;;;36.03;14.93;;;8.20;99.90;;;;;;4860231;29;20053;-83
2023/12/18 12:04:09;;;;;;;35.27;15.27;;;7.90;99.90;;;;;;4844258;29;20053;-83
2023/12/18 12:06:36;;;;;;;36.30;15.02;;;8.00;99.90;;;;;;4843251;29;20498;-83
2023/12/18 12:09:03;;;;;;;34.50;17.70;;;8.00;99.90;;;;;;4859288;29;20065;-83
2023/12/18 12:11:29;;;;;;;35.03;17.87;;;8.30;99.90;;;;;;4843154;29;20053;-83
2023/12/18 12:14:10;;;;;;;29.88;15.77;;;8.10;99.90;;;;;;4842138;29;20045;-84
2023/12/18 12:20:46;;;;;;;29.53;14.50;;;7.80;99.90;;;;;;4845777;29;20061;-83
2023/12/18 12:23:12;;;;;;;36.70;15.32;;;8.20;99.90;;;;;;4845958;29;20045;-83
2023/12/18 12:25:51;;;;;;;34.20;18.17;;;7.90;99.90;;;;;;4846038;29;20175;-83
2023/12/18 12:28:17;;;;;;;35.03;14.85;;;8.00;99.90;;;;;;4846085;29;20068;-83
2023/12/18 12:30:55;;;;;;;32.27;15.80;;;8.20;99.90;;;;;;4862943;29;20072;-83
2023/12/18 12:33:49;;;;;;;30.53;17.27;;;9.80;99.90;;;;;;4845303;29;20049;-83
2023/12/18 12:36:34;;;;;;;35.50;15.95;;;8.70;99.90;;;;;;4845771;29;20041;-83
2023/12/18 12:39:09;;;;;;;27.50;14.17;;;8.30;99.90;;;;;;4846009;29;20191;-83
2023/12/18 12:41:41;;;;;;;30.23;13.85;;;7.80;99.90;;;;;;4845879;29;20077;-84
2023/12/18 12:44:09;;;;;;;26.73;12.70;;;8.30;99.90;;;;;;4845798;29;20086;-83
2023/12/18 12:46:36;;;;;;;27.23;14.53;;;10.00;99.90;;;;;;4845925;29;20057;-83
2023/12/18 12:49:19;;;;;;;29.42;13.18;;;8.20;99.90;;;;;;4845044;29;20045;-84
2023/12/18 12:52:37;;;;;;;31.13;13.97;;;8.80;99.90;;;;;;4845771;29;20045;-84
2023/12/18 12:55:05;;;;;;;35.13;17.00;;;8.40;99.90;;;;;;4844898;29;20061;-83
2023/12/18 12:57:37;;;;;;;29.67;13.10;;;8.30;99.90;;;;;;4845857;29;20066;-83
2023/12/18 13:00:20;;;;;;;29.57;13.87;;;9.60;99.90;;;;;;4846299;29;20395;-83
2023/12/18 13:02:51;;;;;;;31.10;13.97;;;9.80;99.90;;;;;;4844902;29;20054;-83
2023/12/18 13:05:55;;;;;;;30.05;13.48;;;9.90;99.90;;;;;;4846299;29;20397;-82